Hovedside
METAR-TAF:

METAR-TAF

Lufthavner :

Ventspils, Latvia

breddegrad: 57-21-28N, lengdegrad: 021-32-39E, høyde over havet: 6 m

Gjeldene værobservasjon

Denne rapporten ble laget for 20 minutter siden, klokken 05:20 UTC
Vind 4 kt fra Sørvest
Temperatur 10°C
Luftfuktighet 87%
Trykk 1018 hPa
Sikt 10 km eller mer
Spredte skyer i en høyde av 2900 ft

METAR: EVVA 240520Z AUTO 22004KT 9999 SCT029 10/08 Q1018

Tid: 08:40 (05:40 UTC)


TAF: fraværende

Værobservasjoner og værvarsel for over 4000 flyplasser (METAR- og TAF-rapporter).

Tilgjengelige stasjoner er representert av de røde og gule prikkene på kartet.

Hold musepekeren over prikken for å se navnet på stasjonen.

Klikk så for å se værobservasjoner og -varsler.

For å forandre kartet kan du klikke på den grønne knappen med svart kryss for å zoome inn, på den grønne knappen med strek for å zoome ut, eller på de grønne pilene for å se tilstøtende kart.


METAR-TAF: